NKS3 TJSJ-KMCO
Flight info
| Callsign | NKS3 |
|---|---|
| Flight time | N/A |
| Altitude | 34000 |
| Route | ACONY3 SAPPO Y280 CHASO/N0448F360 Y280 OCTAL RIDES2 |
| Aircraft | A320/M-SDE3FGHIRWY/LB1 |
Departure
| Time | N/A |
|---|---|
| Airport | Luis Munoz Marin International Airport (TJSJ) |
Arrival
| Time | 2026-05-04 06:14 |
|---|---|
| Airport | Orlando International Airport (KMCO) |
| Time | Latitude | Longitude | Altitude | Speed | Heading |
|---|---|---|---|---|---|
| 2026-05-04 04:47 | 23.67402 | -74.18635 | 36073 ft | 406 kts | 295° |
| 2026-05-04 04:48 | 23.68815 | -74.21302 | 36070 ft | 406 kts | 295° |
| 2026-05-04 04:49 | 23.75853 | -74.34646 | 36068 ft | 406 kts | 295° |
| 2026-05-04 04:49 | 23.78668 | -74.39991 | 36078 ft | 406 kts | 295° |
| 2026-05-04 04:50 | 23.81475 | -74.45338 | 36076 ft | 406 kts | 295° |
| 2026-05-04 04:50 | 23.84284 | -74.50685 | 36075 ft | 405 kts | 295° |
| 2026-05-04 04:51 | 23.87091 | -74.56029 | 36076 ft | 405 kts | 295° |
| 2026-05-04 04:51 | 23.89892 | -74.61363 | 36078 ft | 405 kts | 295° |
| 2026-05-04 04:52 | 23.92686 | -74.66702 | 36077 ft | 404 kts | 294° |
| 2026-05-04 04:52 | 23.95472 | -74.72041 | 36077 ft | 404 kts | 294° |
| 2026-05-04 04:53 | 23.98257 | -74.77367 | 36077 ft | 403 kts | 294° |
| 2026-05-04 04:53 | 24.01035 | -74.82695 | 36076 ft | 403 kts | 294° |
| 2026-05-04 04:54 | 24.03811 | -74.88015 | 36071 ft | 402 kts | 294° |
| 2026-05-04 04:54 | 24.06591 | -74.93329 | 36072 ft | 402 kts | 294° |
| 2026-05-04 04:55 | 24.09355 | -74.98649 | 36071 ft | 402 kts | 294° |
| 2026-05-04 04:55 | 24.12113 | -75.03960 | 36068 ft | 401 kts | 294° |
| 2026-05-04 04:56 | 24.14846 | -75.09239 | 36068 ft | 401 kts | 294° |
| 2026-05-04 04:56 | 24.17605 | -75.14555 | 36065 ft | 401 kts | 294° |
| 2026-05-04 04:57 | 24.20353 | -75.19865 | 36065 ft | 401 kts | 294° |
| 2026-05-04 04:57 | 24.23102 | -75.25184 | 36061 ft | 401 kts | 294° |
| 2026-05-04 04:58 | 24.25845 | -75.30495 | 36063 ft | 401 kts | 294° |
| 2026-05-04 04:58 | 24.28587 | -75.35811 | 36061 ft | 400 kts | 294° |
| 2026-05-04 04:59 | 24.31324 | -75.41134 | 36054 ft | 400 kts | 294° |
| 2026-05-04 04:59 | 24.34069 | -75.46454 | 36052 ft | 401 kts | 294° |
| 2026-05-04 05:00 | 24.36819 | -75.51774 | 36056 ft | 400 kts | 294° |
| 2026-05-04 05:01 | 24.40921 | -75.59750 | 36059 ft | 400 kts | 294° |
| 2026-05-04 05:01 | 24.43646 | -75.65071 | 36059 ft | 400 kts | 294° |
| 2026-05-04 05:02 | 24.46366 | -75.70388 | 36061 ft | 399 kts | 294° |
| 2026-05-04 05:02 | 24.49086 | -75.75710 | 36063 ft | 399 kts | 294° |
| 2026-05-04 05:03 | 24.51348 | -75.80122 | 36062 ft | 399 kts | 294° |
| 2026-05-04 05:04 | 24.56767 | -75.90743 | 36057 ft | 398 kts | 293° |
| 2026-05-04 05:04 | 24.59468 | -75.96055 | 36060 ft | 398 kts | 293° |
| 2026-05-04 05:06 | 24.70239 | -76.17213 | 36059 ft | 396 kts | 293° |
| 2026-05-04 05:07 | 24.72923 | -76.22508 | 36059 ft | 396 kts | 293° |
| 2026-05-04 05:07 | 24.75607 | -76.27792 | 36054 ft | 395 kts | 293° |
| 2026-05-04 05:09 | 24.87619 | -76.51596 | 36056 ft | 395 kts | 292° |
| 2026-05-04 05:10 | 24.90277 | -76.56880 | 36056 ft | 394 kts | 292° |
| 2026-05-04 05:10 | 24.92930 | -76.62161 | 36058 ft | 394 kts | 292° |
| 2026-05-04 05:11 | 24.95581 | -76.67439 | 36058 ft | 393 kts | 292° |
| 2026-05-04 05:11 | 24.98222 | -76.72719 | 36055 ft | 393 kts | 292° |
| 2026-05-04 05:12 | 25.00862 | -76.77996 | 36054 ft | 393 kts | 292° |
| 2026-05-04 05:12 | 25.03507 | -76.83277 | 36056 ft | 393 kts | 292° |
| 2026-05-04 05:13 | 25.06153 | -76.88559 | 36052 ft | 393 kts | 292° |
| 2026-05-04 05:13 | 25.08793 | -76.93849 | 36055 ft | 393 kts | 292° |
| 2026-05-04 05:14 | 25.11425 | -76.99139 | 36054 ft | 393 kts | 292° |
| 2026-05-04 05:14 | 25.14064 | -77.04434 | 36051 ft | 393 kts | 292° |
| 2026-05-04 05:15 | 25.16698 | -77.09725 | 36052 ft | 393 kts | 292° |
| 2026-05-04 05:15 | 25.19328 | -77.15018 | 36055 ft | 393 kts | 292° |
| 2026-05-04 05:16 | 25.21956 | -77.20308 | 36062 ft | 393 kts | 292° |
| 2026-05-04 05:16 | 25.24579 | -77.25595 | 36060 ft | 392 kts | 292° |
| 2026-05-04 05:17 | 25.27192 | -77.30875 | 36062 ft | 392 kts | 292° |
| 2026-05-04 05:17 | 25.29649 | -77.36219 | 36064 ft | 385 kts | 284° |
| 2026-05-04 05:18 | 25.31446 | -77.41776 | 36052 ft | 384 kts | 284° |
| 2026-05-04 05:18 | 25.33240 | -77.47289 | 36059 ft | 383 kts | 284° |
| 2026-05-04 05:19 | 25.35043 | -77.52831 | 36060 ft | 383 kts | 284° |
| 2026-05-04 05:19 | 25.36845 | -77.58367 | 36047 ft | 383 kts | 284° |
| 2026-05-04 05:20 | 25.38655 | -77.63944 | 36045 ft | 382 kts | 284° |
| 2026-05-04 05:20 | 25.40442 | -77.69477 | 36050 ft | 382 kts | 284° |
| 2026-05-04 05:21 | 25.42227 | -77.75006 | 36046 ft | 382 kts | 284° |
| 2026-05-04 05:21 | 25.43898 | -77.80542 | 36042 ft | 380 kts | 281° |
| 2026-05-04 05:22 | 25.45289 | -77.86174 | 36047 ft | 379 kts | 280° |
| 2026-05-04 05:22 | 25.46623 | -77.91820 | 36043 ft | 379 kts | 280° |
| 2026-05-04 05:23 | 25.48008 | -77.97459 | 36041 ft | 380 kts | 281° |
| 2026-05-04 05:23 | 25.49426 | -78.03096 | 36041 ft | 380 kts | 281° |
| 2026-05-04 05:24 | 25.50846 | -78.08736 | 36042 ft | 380 kts | 281° |
| 2026-05-04 05:24 | 25.52256 | -78.14389 | 36041 ft | 381 kts | 281° |
| 2026-05-04 05:25 | 25.53657 | -78.20039 | 36042 ft | 381 kts | 280° |
| 2026-05-04 05:25 | 25.55056 | -78.25706 | 36039 ft | 381 kts | 280° |
| 2026-05-04 05:26 | 25.56460 | -78.31375 | 36040 ft | 382 kts | 280° |
| 2026-05-04 05:26 | 25.57861 | -78.37040 | 36042 ft | 381 kts | 280° |
| 2026-05-04 05:28 | 25.63432 | -78.59663 | 36045 ft | 380 kts | 280° |
| 2026-05-04 05:29 | 25.64822 | -78.65319 | 36043 ft | 380 kts | 280° |
| 2026-05-04 05:29 | 25.66203 | -78.70970 | 36042 ft | 379 kts | 279° |
| 2026-05-04 05:31 | 25.71689 | -78.93497 | 36044 ft | 377 kts | 279° |
| 2026-05-04 05:32 | 25.73048 | -78.99105 | 36047 ft | 376 kts | 279° |
| 2026-05-04 05:33 | 25.75082 | -79.07502 | 36050 ft | 375 kts | 279° |
| 2026-05-04 05:33 | 25.76429 | -79.13089 | 36051 ft | 374 kts | 279° |
| 2026-05-04 05:34 | 25.77768 | -79.18665 | 36055 ft | 373 kts | 279° |
| 2026-05-04 05:34 | 25.79107 | -79.24227 | 36054 ft | 373 kts | 278° |
| 2026-05-04 05:35 | 25.80434 | -79.29742 | 36051 ft | 372 kts | 278° |
| 2026-05-04 05:35 | 25.81766 | -79.35294 | 36053 ft | 372 kts | 278° |
| 2026-05-04 05:36 | 25.83089 | -79.40833 | 36058 ft | 371 kts | 278° |
| 2026-05-04 05:36 | 25.84410 | -79.46368 | 36056 ft | 370 kts | 278° |
| 2026-05-04 05:37 | 25.85722 | -79.51892 | 36054 ft | 370 kts | 278° |
| 2026-05-04 05:37 | 25.87037 | -79.57407 | 36059 ft | 370 kts | 278° |
| 2026-05-04 05:38 | 25.88998 | -79.65685 | 36058 ft | 370 kts | 278° |
| 2026-05-04 05:38 | 25.90300 | -79.71203 | 36056 ft | 369 kts | 278° |
| 2026-05-04 05:39 | 25.92374 | -79.79434 | 36051 ft | 375 kts | 285° |
| 2026-05-04 05:40 | 25.96474 | -79.87042 | 36063 ft | 384 kts | 292° |
| 2026-05-04 05:40 | 25.99292 | -79.92080 | 36058 ft | 384 kts | 292° |
| 2026-05-04 05:41 | 26.02112 | -79.97117 | 36069 ft | 384 kts | 292° |
| 2026-05-04 05:41 | 26.04930 | -80.02154 | 36075 ft | 384 kts | 292° |
| 2026-05-04 05:42 | 26.07743 | -80.07193 | 36084 ft | 383 kts | 292° |
| 2026-05-04 05:42 | 26.10560 | -80.12233 | 36090 ft | 383 kts | 292° |
| 2026-05-04 05:43 | 26.13359 | -80.17239 | 36088 ft | 385 kts | 295° |
| 2026-05-04 05:43 | 26.15108 | -80.19561 | 36082 ft | 400 kts | 306° |
| 2026-05-04 05:45 | 26.33416 | -80.29865 | 36084 ft | 424 kts | 322° |
| 2026-05-04 05:47 | 26.53697 | -80.40428 | 32945 ft | 390 kts | 323° |
| 2026-05-04 05:47 | 26.56149 | -80.41711 | 32509 ft | 387 kts | 322° |
| 2026-05-04 05:47 | 26.58580 | -80.42995 | 32078 ft | 385 kts | 322° |
| 2026-05-04 05:48 | 26.61000 | -80.44275 | 31642 ft | 384 kts | 323° |
| 2026-05-04 05:48 | 26.63441 | -80.45510 | 31185 ft | 386 kts | 325° |
| 2026-05-04 05:48 | 26.65940 | -80.46628 | 30757 ft | 388 kts | 327° |
| 2026-05-04 05:48 | 26.68471 | -80.47663 | 30328 ft | 388 kts | 329° |
| 2026-05-04 05:49 | 26.71019 | -80.48659 | 29861 ft | 386 kts | 329° |
| 2026-05-04 05:49 | 26.73551 | -80.49642 | 29433 ft | 383 kts | 329° |
| 2026-05-04 05:49 | 26.76050 | -80.50627 | 29025 ft | 379 kts | 329° |
| 2026-05-04 05:49 | 26.78513 | -80.51621 | 28639 ft | 375 kts | 328° |
| 2026-05-04 05:51 | 26.95228 | -80.58568 | 25877 ft | 360 kts | 329° |
| 2026-05-04 05:51 | 26.97578 | -80.59542 | 25459 ft | 359 kts | 329° |
| 2026-05-04 05:52 | 26.99920 | -80.60515 | 25047 ft | 358 kts | 329° |
| 2026-05-04 05:52 | 27.02251 | -80.61487 | 24623 ft | 358 kts | 329° |
| 2026-05-04 05:52 | 27.04584 | -80.62460 | 24194 ft | 358 kts | 329° |
| 2026-05-04 05:52 | 27.06923 | -80.63435 | 23765 ft | 358 kts | 329° |
| 2026-05-04 05:53 | 27.09260 | -80.64407 | 23283 ft | 359 kts | 329° |
| 2026-05-04 05:54 | 27.25530 | -80.71213 | 21933 ft | 354 kts | 329° |
| 2026-05-04 05:55 | 27.27834 | -80.72179 | 21756 ft | 353 kts | 329° |
| 2026-05-04 05:55 | 27.30127 | -80.73143 | 21590 ft | 352 kts | 329° |
| 2026-05-04 05:55 | 27.32416 | -80.74105 | 21412 ft | 351 kts | 329° |
| 2026-05-04 05:55 | 27.34697 | -80.75066 | 21244 ft | 350 kts | 329° |
| 2026-05-04 05:56 | 27.36973 | -80.76024 | 21072 ft | 349 kts | 329° |
| 2026-05-04 05:56 | 27.39247 | -80.76989 | 20645 ft | 350 kts | 329° |
| 2026-05-04 05:56 | 27.41520 | -80.77971 | 20245 ft | 348 kts | 329° |
| 2026-05-04 05:56 | 27.43775 | -80.78951 | 19796 ft | 347 kts | 329° |
| 2026-05-04 05:57 | 27.46012 | -80.79921 | 19425 ft | 344 kts | 329° |
| 2026-05-04 05:57 | 27.48247 | -80.80892 | 19054 ft | 342 kts | 329° |
| 2026-05-04 05:57 | 27.50431 | -80.81838 | 18696 ft | 340 kts | 329° |
| 2026-05-04 05:57 | 27.52631 | -80.82793 | 18327 ft | 338 kts | 329° |
| 2026-05-04 05:58 | 27.54848 | -80.83757 | 17906 ft | 336 kts | 329° |
| 2026-05-04 05:58 | 27.56957 | -80.84805 | 17503 ft | 325 kts | 321° |
| 2026-05-04 05:58 | 27.58858 | -80.86139 | 17112 ft | 321 kts | 319° |
| 2026-05-04 05:58 | 27.60740 | -80.87473 | 16723 ft | 319 kts | 320° |
| 2026-05-04 05:59 | 27.62615 | -80.88798 | 16360 ft | 317 kts | 320° |
| 2026-05-04 05:59 | 27.64472 | -80.90103 | 15748 ft | 312 kts | 320° |
| 2026-05-04 05:59 | 27.66305 | -80.91392 | 15097 ft | 309 kts | 321° |
| 2026-05-04 05:59 | 27.68112 | -80.92664 | 14581 ft | 303 kts | 321° |
| 2026-05-04 06:00 | 27.69871 | -80.93902 | 14194 ft | 300 kts | 322° |
| 2026-05-04 06:00 | 27.71637 | -80.95148 | 13804 ft | 299 kts | 322° |
| 2026-05-04 06:00 | 27.73395 | -80.96394 | 13407 ft | 298 kts | 322° |
| 2026-05-04 06:00 | 27.75153 | -80.97642 | 13020 ft | 298 kts | 322° |
| 2026-05-04 06:01 | 27.76901 | -80.98883 | 12636 ft | 297 kts | 323° |
| 2026-05-04 06:01 | 27.78649 | -81.00121 | 12261 ft | 296 kts | 323° |
| 2026-05-04 06:03 | 27.90593 | -81.08581 | 10039 ft | 283 kts | 324° |
| 2026-05-04 06:03 | 27.92315 | -81.09655 | 9724 ft | 284 kts | 334° |
| 2026-05-04 06:05 | 28.04256 | -81.15077 | 7566 ft | 235 kts | 336° |
| 2026-05-04 06:05 | 28.07202 | -81.16428 | 6942 ft | 225 kts | 334° |
| 2026-05-04 06:05 | 28.08620 | -81.17181 | 6650 ft | 226 kts | 332° |
| 2026-05-04 06:06 | 28.10025 | -81.17986 | 6320 ft | 226 kts | 331° |
| 2026-05-04 06:06 | 28.11404 | -81.18790 | 5997 ft | 220 kts | 331° |
| 2026-05-04 06:06 | 28.12753 | -81.19574 | 5667 ft | 215 kts | 332° |
| 2026-05-04 06:06 | 28.14071 | -81.20340 | 5349 ft | 211 kts | 331° |
| 2026-05-04 06:07 | 28.15372 | -81.21119 | 5048 ft | 214 kts | 331° |
| 2026-05-04 06:07 | 28.16693 | -81.21920 | 4755 ft | 216 kts | 331° |
| 2026-05-04 06:07 | 28.18025 | -81.22728 | 4446 ft | 218 kts | 332° |
| 2026-05-04 06:07 | 28.19355 | -81.23532 | 4148 ft | 220 kts | 333° |
| 2026-05-04 06:08 | 28.20707 | -81.24348 | 3847 ft | 220 kts | 334° |
| 2026-05-04 06:08 | 28.22046 | -81.25156 | 3549 ft | 216 kts | 334° |
| 2026-05-04 06:08 | 28.23355 | -81.25947 | 3251 ft | 210 kts | 335° |
| 2026-05-04 06:08 | 28.24619 | -81.26711 | 3072 ft | 203 kts | 335° |
| 2026-05-04 06:09 | 28.25857 | -81.27455 | 2992 ft | 199 kts | 335° |
| 2026-05-04 06:09 | 28.27078 | -81.28022 | 2923 ft | 181 kts | 353° |
| 2026-05-04 06:11 | 28.34430 | -81.28158 | 1587 ft | 133 kts | 5° |
| 2026-05-04 06:11 | 28.35351 | -81.28167 | 1414 ft | 132 kts | 5° |
| 2026-05-04 06:13 | 28.41750 | -81.28231 | 180 ft | 131 kts | 1° |
| 2026-05-04 06:14 | 28.43456 | -81.28373 | 101 ft | 14 kts | 178° |
| 2026-05-04 06:14 | 28.43344 | -81.28373 | 101 ft | 18 kts | 181° |
| 2026-05-04 06:15 | 28.43219 | -81.28372 | 100 ft | 18 kts | 179° |
| 2026-05-04 06:15 | 28.43090 | -81.28370 | 99 ft | 20 kts | 180° |
| 2026-05-04 06:15 | 28.42944 | -81.28368 | 100 ft | 23 kts | 179° |
| 2026-05-04 06:15 | 28.42796 | -81.28366 | 103 ft | 21 kts | 179° |
| 2026-05-04 06:16 | 28.42650 | -81.28366 | 107 ft | 21 kts | 179° |
| 2026-05-04 06:16 | 28.42514 | -81.28389 | 107 ft | 20 kts | 228° |
| 2026-05-04 06:16 | 28.42465 | -81.28542 | 105 ft | 19 kts | 251° |
| 2026-05-04 06:16 | 28.42420 | -81.28685 | 103 ft | 19 kts | 251° |
| 2026-05-04 06:17 | 28.42376 | -81.28829 | 108 ft | 20 kts | 251° |
| 2026-05-04 06:17 | 28.42327 | -81.28988 | 106 ft | 23 kts | 250° |
| 2026-05-04 06:17 | 28.42289 | -81.29147 | 107 ft | 22 kts | 263° |
| 2026-05-04 06:17 | 28.42346 | -81.29249 | 104 ft | 17 kts | 337° |
| 2026-05-04 06:18 | 28.42364 | -81.29327 | 103 ft | 11 kts | 270° |
| 2026-05-04 06:18 | 28.42366 | -81.29433 | 102 ft | 16 kts | 270° |
| 2026-05-04 06:18 | 28.42365 | -81.29583 | 100 ft | 21 kts | 270° |
| 2026-05-04 06:20 | 28.42798 | -81.30009 | 103 ft | 0 kts | 308° |